Terminal Aerodrome Forecast
Issued by NWS

Home | Current Version | Previous Version | Text Only | Print | Product List | Glossary On
Versions: 1 2 3 4 5 6 7 8 9 10 11 12
686
FTUS45 KVEF 261120
TAFHND
TAF
KHND 261120Z 2612/2712 19007KT P6SM FEW250
     FM261600 05006KT P6SM FEW130 SCT250
     FM270100 19010KT P6SM SCT250=

USA.gov is the U.S. government's official web portal to all federal, state and local government web resources and services.